sensor_id;sensor_type;location;lat;lon;timestamp;noise_LAeq;noise_LA_min;noise_LA_max;noise_LA01;noise_LA95
69609;Laerm;56815;52.320;4.858;2023-03-21T00:00:07;35.27;30.15;53.41;;
69609;Laerm;56815;52.320;4.858;2023-03-21T00:00:18;34.45;30.07;47.57;;
69609;Laerm;56815;52.320;4.858;2023-03-21T00:00:28;34.29;29.88;52.81;;
69609;Laerm;56815;52.320;4.858;2023-03-21T00:00:39;33.97;29.71;49.86;;
69609;Laerm;56815;52.320;4.858;2023-03-21T00:00:56;35.17;29.99;52.39;;
69609;Laerm;56815;52.320;4.858;2023-03-21T00:01:06;36.48;29.71;58.03;;
69609;Laerm;56815;52.320;4.858;2023-03-21T00:01:17;36.94;31.03;49.39;;
69609;Laerm;56815;52.320;4.858;2023-03-21T00:01:27;40.82;32.86;61.07;;
69609;Laerm;56815;52.320;4.858;2023-03-21T00:01:37;44.12;32.59;55.40;;
69609;Laerm;56815;52.320;4.858;2023-03-21T00:01:48;60.42;48.52;68.28;;
69609;Laerm;56815;52.320;4.858;2023-03-21T00:01:59;75.53;63.42;81.54;;
69609;Laerm;56815;52.320;4.858;2023-03-21T00:02:09;78.38;56.48;87.41;;
69609;Laerm;56815;52.320;4.858;2023-03-21T00:02:19;53.60;45.82;58.83;;
69609;Laerm;56815;52.320;4.858;2023-03-21T00:02:30;46.10;40.94;51.18;;
69609;Laerm;56815;52.320;4.858;2023-03-21T00:02:40;43.42;33.10;50.82;;
69609;Laerm;56815;52.320;4.858;2023-03-21T00:02:51;34.79;31.70;45.37;;
69609;Laerm;56815;52.320;4.858;2023-03-21T00:03:01;36.68;30.58;54.79;;
69609;Laerm;56815;52.320;4.858;2023-03-21T00:03:12;35.91;30.74;49.82;;
69609;Laerm;56815;52.320;4.858;2023-03-21T00:03:22;34.22;31.04;45.92;;
69609;Laerm;56815;52.320;4.858;2023-03-21T00:03:33;36.20;33.23;49.58;;
69609;Laerm;56815;52.320;4.858;2023-03-21T00:03:43;37.19;32.34;53.06;;
69609;Laerm;56815;52.320;4.858;2023-03-21T00:03:55;34.35;30.77;45.98;;
69609;Laerm;56815;52.320;4.858;2023-03-21T00:04:05;35.29;30.35;51.97;;
69609;Laerm;56815;52.320;4.858;2023-03-21T00:04:16;34.53;30.83;47.17;;
69609;Laerm;56815;52.320;4.858;2023-03-21T00:04:26;34.94;31.59;43.50;;
69609;Laerm;56815;52.320;4.858;2023-03-21T00:04:36;37.31;31.35;52.51;;
69609;Laerm;56815;52.320;4.858;2023-03-21T00:04:47;35.34;29.94;52.31;;
69609;Laerm;56815;52.320;4.858;2023-03-21T00:04:58;34.23;30.10;49.95;;
69609;Laerm;56815;52.320;4.858;2023-03-21T00:05:08;32.81;29.55;43.57;;
69609;Laerm;56815;52.320;4.858;2023-03-21T00:05:19;34.43;29.35;47.74;;
69609;Laerm;56815;52.320;4.858;2023-03-21T00:05:29;33.88;29.92;46.29;;
69609;Laerm;56815;52.320;4.858;2023-03-21T00:05:40;33.26;29.86;46.68;;
69609;Laerm;56815;52.320;4.858;2023-03-21T00:05:51;34.74;29.99;48.16;;
69609;Laerm;56815;52.320;4.858;2023-03-21T00:06:06;35.14;30.18;49.01;;
69609;Laerm;56815;52.320;4.858;2023-03-21T00:06:16;35.94;31.70;49.13;;
69609;Laerm;56815;52.320;4.858;2023-03-21T00:06:27;34.81;29.95;49.64;;
69609;Laerm;56815;52.320;4.858;2023-03-21T00:06:37;34.34;30.08;47.50;;
69609;Laerm;56815;52.320;4.858;2023-03-21T00:06:47;36.87;30.03;52.79;;
69609;Laerm;56815;52.320;4.858;2023-03-21T00:06:58;36.26;29.51;56.20;;
69609;Laerm;56815;52.320;4.858;2023-03-21T00:07:08;33.14;29.60;47.00;;
69609;Laerm;56815;52.320;4.858;2023-03-21T00:07:18;33.24;29.76;47.86;;
69609;Laerm;56815;52.320;4.858;2023-03-21T00:07:28;36.55;29.44;56.75;;
69609;Laerm;56815;52.320;4.858;2023-03-21T00:07:39;34.46;29.82;52.29;;
69609;Laerm;56815;52.320;4.858;2023-03-21T00:07:49;35.11;29.83;49.26;;
69609;Laerm;56815;52.320;4.858;2023-03-21T00:08:00;33.90;29.71;47.60;;
69609;Laerm;56815;52.320;4.858;2023-03-21T00:08:10;34.18;29.60;48.34;;
69609;Laerm;56815;52.320;4.858;2023-03-21T00:08:21;32.82;29.97;44.05;;
69609;Laerm;56815;52.320;4.858;2023-03-21T00:08:32;33.94;31.23;42.84;;
69609;Laerm;56815;52.320;4.858;2023-03-21T00:08:42;34.20;30.65;45.52;;
69609;Laerm;56815;52.320;4.858;2023-03-21T00:08:53;35.22;29.76;52.80;;
69609;Laerm;56815;52.320;4.858;2023-03-21T00:09:03;34.36;29.63;50.21;;
69609;Laerm;56815;52.320;4.858;2023-03-21T00:09:14;40.34;30.49;59.97;;
69609;Laerm;56815;52.320;4.858;2023-03-21T00:09:24;35.04;31.69;47.87;;
69609;Laerm;56815;52.320;4.858;2023-03-21T00:09:35;35.00;30.51;48.20;;
69609;Laerm;56815;52.320;4.858;2023-03-21T00:09:45;37.52;31.51;54.28;;
69609;Laerm;56815;52.320;4.858;2023-03-21T00:09:55;35.08;30.83;48.53;;
69609;Laerm;56815;52.320;4.858;2023-03-21T00:10:06;35.52;30.31;51.50;;
69609;Laerm;56815;52.320;4.858;2023-03-21T00:10:16;34.70;29.53;49.05;;
69609;Laerm;56815;52.320;4.858;2023-03-21T00:10:26;34.70;30.03;50.64;;
69609;Laerm;56815;52.320;4.858;2023-03-21T00:10:36;36.26;29.97;55.43;;
69609;Laerm;56815;52.320;4.858;2023-03-21T00:10:53;35.46;30.54;49.49;;
69609;Laerm;56815;52.320;4.858;2023-03-21T00:11:05;34.31;30.41;51.20;;
69609;Laerm;56815;52.320;4.858;2023-03-21T00:11:15;33.44;30.12;46.17;;
69609;Laerm;56815;52.320;4.858;2023-03-21T00:11:26;34.82;29.67;51.86;;
69609;Laerm;56815;52.320;4.858;2023-03-21T00:11:36;33.75;29.91;49.91;;
69609;Laerm;56815;52.320;4.858;2023-03-21T00:11:46;33.88;29.86;46.51;;
69609;Laerm;56815;52.320;4.858;2023-03-21T00:11:57;35.69;29.65;49.99;;
69609;Laerm;56815;52.320;4.858;2023-03-21T00:12:10;34.62;29.25;53.69;;
69609;Laerm;56815;52.320;4.858;2023-03-21T00:12:21;37.40;29.80;59.76;;
69609;Laerm;56815;52.320;4.858;2023-03-21T00:12:32;33.53;30.23;43.43;;
69609;Laerm;56815;52.320;4.858;2023-03-21T00:12:46;33.38;30.13;46.37;;
69609;Laerm;56815;52.320;4.858;2023-03-21T00:12:59;33.61;30.16;46.18;;
69609;Laerm;56815;52.320;4.858;2023-03-21T00:13:10;33.09;30.35;42.71;;
69609;Laerm;56815;52.320;4.858;2023-03-21T00:13:22;34.82;30.61;49.51;;
69609;Laerm;56815;52.320;4.858;2023-03-21T00:13:32;34.99;30.46;52.71;;
69609;Laerm;56815;52.320;4.858;2023-03-21T00:13:47;34.96;30.35;48.54;;
69609;Laerm;56815;52.320;4.858;2023-03-21T00:13:57;34.30;29.93;45.48;;
69609;Laerm;56815;52.320;4.858;2023-03-21T00:14:11;33.89;30.73;45.44;;
69609;Laerm;56815;52.320;4.858;2023-03-21T00:14:24;35.02;30.82;48.95;;
69609;Laerm;56815;52.320;4.858;2023-03-21T00:14:35;39.54;30.57;60.14;;
69609;Laerm;56815;52.320;4.858;2023-03-21T00:14:46;35.28;30.02;54.32;;
69609;Laerm;56815;52.320;4.858;2023-03-21T00:14:57;35.05;29.93;52.06;;
69609;Laerm;56815;52.320;4.858;2023-03-21T00:15:13;35.05;29.81;49.40;;
69609;Laerm;56815;52.320;4.858;2023-03-21T00:15:24;36.48;29.90;52.39;;
69609;Laerm;56815;52.320;4.858;2023-03-21T00:15:36;32.69;29.18;46.08;;
69609;Laerm;56815;52.320;4.858;2023-03-21T00:16:03;33.85;29.20;48.00;;
69609;Laerm;56815;52.320;4.858;2023-03-21T00:16:14;32.89;29.35;45.09;;
69609;Laerm;56815;52.320;4.858;2023-03-21T00:16:25;34.76;29.78;52.65;;
69609;Laerm;56815;52.320;4.858;2023-03-21T00:16:36;34.78;29.94;50.30;;
69609;Laerm;56815;52.320;4.858;2023-03-21T00:16:47;37.29;30.33;59.48;;
69609;Laerm;56815;52.320;4.858;2023-03-21T00:17:00;34.23;30.29;45.63;;
69609;Laerm;56815;52.320;4.858;2023-03-21T00:17:10;40.46;30.53;62.29;;
69609;Laerm;56815;52.320;4.858;2023-03-21T00:17:20;33.01;30.47;43.34;;
69609;Laerm;56815;52.320;4.858;2023-03-21T00:17:33;33.92;30.26;44.89;;
69609;Laerm;56815;52.320;4.858;2023-03-21T00:17:43;35.81;32.27;46.96;;
69609;Laerm;56815;52.320;4.858;2023-03-21T00:17:55;37.63;30.80;53.55;;
69609;Laerm;56815;52.320;4.858;2023-03-21T00:18:12;40.47;29.91;66.04;;
69609;Laerm;56815;52.320;4.858;2023-03-21T00:18:22;34.88;29.89;53.32;;
69609;Laerm;56815;52.320;4.858;2023-03-21T00:18:35;34.21;29.60;48.87;;
69609;Laerm;56815;52.320;4.858;2023-03-21T00:18:48;40.69;29.74;64.16;;
69609;Laerm;56815;52.320;4.858;2023-03-21T00:19:01;35.60;31.37;54.82;;
69609;Laerm;56815;52.320;4.858;2023-03-21T00:19:18;41.61;30.77;64.69;;
69609;Laerm;56815;52.320;4.858;2023-03-21T00:19:29;34.41;30.59;51.37;;
69609;Laerm;56815;52.320;4.858;2023-03-21T00:19:40;42.30;30.24;65.30;;
69609;Laerm;56815;52.320;4.858;2023-03-21T00:19:52;36.07;30.07;53.58;;
69609;Laerm;56815;52.320;4.858;2023-03-21T00:20:03;34.48;29.71;48.25;;
69609;Laerm;56815;52.320;4.858;2023-03-21T00:20:24;36.58;29.68;56.74;;
69609;Laerm;56815;52.320;4.858;2023-03-21T00:20:34;32.73;29.74;43.43;;
69609;Laerm;56815;52.320;4.858;2023-03-21T00:20:56;33.54;29.35;47.61;;
69609;Laerm;56815;52.320;4.858;2023-03-21T00:21:08;35.69;29.24;57.75;;
69609;Laerm;56815;52.320;4.858;2023-03-21T00:21:20;33.55;29.59;47.36;;
69609;Laerm;56815;52.320;4.858;2023-03-21T00:21:37;33.40;29.90;47.31;;
69609;Laerm;56815;52.320;4.858;2023-03-21T00:21:47;41.18;29.89;64.82;;
69609;Laerm;56815;52.320;4.858;2023-03-21T00:22:01;33.48;30.39;43.51;;
69609;Laerm;56815;52.320;4.858;2023-03-21T00:22:11;36.13;30.13;51.32;;
69609;Laerm;56815;52.320;4.858;2023-03-21T00:22:24;34.91;29.42;54.85;;
69609;Laerm;56815;52.320;4.858;2023-03-21T00:22:34;34.98;29.89;53.80;;
69609;Laerm;56815;52.320;4.858;2023-03-21T00:22:45;34.23;30.32;48.17;;
69609;Laerm;56815;52.320;4.858;2023-03-21T00:22:55;34.11;29.82;48.38;;
69609;Laerm;56815;52.320;4.858;2023-03-21T00:23:06;33.13;29.68;48.20;;
69609;Laerm;56815;52.320;4.858;2023-03-21T00:23:16;33.03;29.26;44.14;;
69609;Laerm;56815;52.320;4.858;2023-03-21T00:23:27;33.69;29.88;48.04;;
69609;Laerm;56815;52.320;4.858;2023-03-21T00:23:37;32.98;29.79;47.86;;
69609;Laerm;56815;52.320;4.858;2023-03-21T00:23:47;32.38;29.71;39.62;;
69609;Laerm;56815;52.320;4.858;2023-03-21T00:23:58;33.11;29.77;41.14;;
69609;Laerm;56815;52.320;4.858;2023-03-21T00:24:09;35.27;30.16;48.34;;
69609;Laerm;56815;52.320;4.858;2023-03-21T00:24:20;35.01;30.89;49.52;;
69609;Laerm;56815;52.320;4.858;2023-03-21T00:24:32;32.93;30.32;40.87;;
69609;Laerm;56815;52.320;4.858;2023-03-21T00:24:42;34.49;30.08;50.00;;
69609;Laerm;56815;52.320;4.858;2023-03-21T00:24:53;33.29;29.84;46.51;;
69609;Laerm;56815;52.320;4.858;2023-03-21T00:25:03;36.20;30.47;45.27;;
69609;Laerm;56815;52.320;4.858;2023-03-21T00:25:14;42.35;36.38;48.92;;
69609;Laerm;56815;52.320;4.858;2023-03-21T00:25:24;43.60;37.22;53.70;;
69609;Laerm;56815;52.320;4.858;2023-03-21T00:25:34;41.73;34.44;50.02;;
69609;Laerm;56815;52.320;4.858;2023-03-21T00:25:45;40.47;32.82;53.41;;
69609;Laerm;56815;52.320;4.858;2023-03-21T00:25:55;43.21;32.27;65.40;;
69609;Laerm;56815;52.320;4.858;2023-03-21T00:26:06;39.63;32.28;57.97;;
69609;Laerm;56815;52.320;4.858;2023-03-21T00:26:19;37.07;32.47;50.55;;
69609;Laerm;56815;52.320;4.858;2023-03-21T00:26:31;36.38;30.78;47.74;;
69609;Laerm;56815;52.320;4.858;2023-03-21T00:26:42;37.74;29.80;55.49;;
69609;Laerm;56815;52.320;4.858;2023-03-21T00:26:52;33.03;30.48;40.27;;
69609;Laerm;56815;52.320;4.858;2023-03-21T00:27:03;34.70;30.53;45.14;;
69609;Laerm;56815;52.320;4.858;2023-03-21T00:27:13;38.39;29.39;61.48;;
69609;Laerm;56815;52.320;4.858;2023-03-21T00:27:23;33.68;30.32;48.58;;
69609;Laerm;56815;52.320;4.858;2023-03-21T00:27:34;34.69;29.55;51.11;;
69609;Laerm;56815;52.320;4.858;2023-03-21T00:27:44;35.54;30.73;48.59;;
69609;Laerm;56815;52.320;4.858;2023-03-21T00:27:54;34.15;30.01;48.10;;
69609;Laerm;56815;52.320;4.858;2023-03-21T00:28:05;32.79;29.86;42.05;;
69609;Laerm;56815;52.320;4.858;2023-03-21T00:28:15;33.90;30.04;48.78;;
69609;Laerm;56815;52.320;4.858;2023-03-21T00:28:26;34.39;30.38;49.20;;
69609;Laerm;56815;52.320;4.858;2023-03-21T00:28:36;39.32;30.31;62.01;;
69609;Laerm;56815;52.320;4.858;2023-03-21T00:28:47;34.46;30.53;47.27;;
69609;Laerm;56815;52.320;4.858;2023-03-21T00:28:57;33.00;29.72;43.17;;
69609;Laerm;56815;52.320;4.858;2023-03-21T00:29:07;35.81;29.22;56.51;;
69609;Laerm;56815;52.320;4.858;2023-03-21T00:29:18;33.12;29.10;46.94;;
69609;Laerm;56815;52.320;4.858;2023-03-21T00:29:28;39.74;29.62;62.99;;
69609;Laerm;56815;52.320;4.858;2023-03-21T00:29:38;34.24;30.20;46.25;;
69609;Laerm;56815;52.320;4.858;2023-03-21T00:29:49;37.62;29.92;59.89;;
69609;Laerm;56815;52.320;4.858;2023-03-21T00:29:59;32.95;29.92;43.15;;
69609;Laerm;56815;52.320;4.858;2023-03-21T00:30:10;35.52;30.14;47.91;;
69609;Laerm;56815;52.320;4.858;2023-03-21T00:30:21;35.93;30.06;48.62;;
69609;Laerm;56815;52.320;4.858;2023-03-21T00:30:31;33.74;29.49;48.74;;
69609;Laerm;56815;52.320;4.858;2023-03-21T00:30:41;33.76;29.40;47.16;;
69609;Laerm;56815;52.320;4.858;2023-03-21T00:30:57;36.38;32.11;47.22;;
69609;Laerm;56815;52.320;4.858;2023-03-21T00:31:08;34.86;30.46;46.29;;
69609;Laerm;56815;52.320;4.858;2023-03-21T00:31:19;34.56;29.82;47.87;;
69609;Laerm;56815;52.320;4.858;2023-03-21T00:31:29;34.88;30.36;47.52;;
69609;Laerm;56815;52.320;4.858;2023-03-21T00:31:40;33.49;30.28;44.51;;
69609;Laerm;56815;52.320;4.858;2023-03-21T00:31:50;33.70;30.68;45.37;;
69609;Laerm;56815;52.320;4.858;2023-03-21T00:32:00;34.74;31.05;42.33;;
69609;Laerm;56815;52.320;4.858;2023-03-21T00:32:11;37.44;31.80;56.43;;
69609;Laerm;56815;52.320;4.858;2023-03-21T00:32:21;40.21;30.83;62.74;;
69609;Laerm;56815;52.320;4.858;2023-03-21T00:32:31;33.64;30.55;45.11;;
69609;Laerm;56815;52.320;4.858;2023-03-21T00:32:42;41.44;30.35;62.27;;
69609;Laerm;56815;52.320;4.858;2023-03-21T00:32:52;35.09;30.67;49.21;;
69609;Laerm;56815;52.320;4.858;2023-03-21T00:33:03;35.23;31.16;52.92;;
69609;Laerm;56815;52.320;4.858;2023-03-21T00:33:13;38.23;31.24;59.82;;
69609;Laerm;56815;52.320;4.858;2023-03-21T00:33:24;35.76;31.36;49.04;;
69609;Laerm;56815;52.320;4.858;2023-03-21T00:33:34;36.95;29.65;58.56;;
69609;Laerm;56815;52.320;4.858;2023-03-21T00:33:45;36.28;29.63;58.86;;
69609;Laerm;56815;52.320;4.858;2023-03-21T00:33:55;33.08;29.30;46.17;;
69609;Laerm;56815;52.320;4.858;2023-03-21T00:34:05;33.32;29.32;47.48;;
69609;Laerm;56815;52.320;4.858;2023-03-21T00:34:16;34.79;29.44;51.75;;
69609;Laerm;56815;52.320;4.858;2023-03-21T00:34:26;33.96;29.54;47.85;;
69609;Laerm;56815;52.320;4.858;2023-03-21T00:34:36;32.58;29.60;46.08;;
69609;Laerm;56815;52.320;4.858;2023-03-21T00:34:47;32.69;29.87;47.29;;
69609;Laerm;56815;52.320;4.858;2023-03-21T00:34:58;33.41;30.23;47.28;;
69609;Laerm;56815;52.320;4.858;2023-03-21T00:35:09;34.11;30.00;49.45;;
69609;Laerm;56815;52.320;4.858;2023-03-21T00:35:19;40.57;30.50;62.30;;
69609;Laerm;56815;52.320;4.858;2023-03-21T00:35:30;34.58;30.89;45.86;;
69609;Laerm;56815;52.320;4.858;2023-03-21T00:35:40;33.68;30.03;46.38;;
69609;Laerm;56815;52.320;4.858;2023-03-21T00:35:57;41.93;29.34;67.96;;
69609;Laerm;56815;52.320;4.858;2023-03-21T00:36:07;35.71;29.55;51.90;;
69609;Laerm;56815;52.320;4.858;2023-03-21T00:36:18;34.31;29.52;52.92;;
69609;Laerm;56815;52.320;4.858;2023-03-21T00:36:28;32.58;29.56;45.14;;
69609;Laerm;56815;52.320;4.858;2023-03-21T00:36:38;37.32;29.43;58.29;;
69609;Laerm;56815;52.320;4.858;2023-03-21T00:36:49;32.83;29.55;45.63;;
69609;Laerm;56815;52.320;4.858;2023-03-21T00:36:59;33.81;29.60;47.26;;
69609;Laerm;56815;52.320;4.858;2023-03-21T00:37:10;36.11;29.82;58.73;;
69609;Laerm;56815;52.320;4.858;2023-03-21T00:37:23;32.68;29.59;41.79;;
69609;Laerm;56815;52.320;4.858;2023-03-21T00:37:33;37.84;29.65;57.96;;
69609;Laerm;56815;52.320;4.858;2023-03-21T00:37:44;36.75;30.09;57.73;;
69609;Laerm;56815;52.320;4.858;2023-03-21T00:37:54;33.80;30.22;46.47;;
69609;Laerm;56815;52.320;4.858;2023-03-21T00:38:04;34.05;30.00;49.83;;
69609;Laerm;56815;52.320;4.858;2023-03-21T00:38:15;34.52;30.10;48.50;;
69609;Laerm;56815;52.320;4.858;2023-03-21T00:38:25;33.71;30.67;45.00;;
69609;Laerm;56815;52.320;4.858;2023-03-21T00:38:36;35.42;31.01;49.16;;
69609;Laerm;56815;52.320;4.858;2023-03-21T00:38:46;38.01;30.06;57.35;;
69609;Laerm;56815;52.320;4.858;2023-03-21T00:38:57;34.81;29.49;52.01;;
69609;Laerm;56815;52.320;4.858;2023-03-21T00:39:07;32.71;30.06;41.50;;
69609;Laerm;56815;52.320;4.858;2023-03-21T00:39:17;36.40;31.11;54.89;;
69609;Laerm;56815;52.320;4.858;2023-03-21T00:39:28;35.54;30.01;51.15;;
69609;Laerm;56815;52.320;4.858;2023-03-21T00:39:38;33.92;29.64;51.04;;
69609;Laerm;56815;52.320;4.858;2023-03-21T00:39:48;33.92;29.33;52.59;;
69609;Laerm;56815;52.320;4.858;2023-03-21T00:39:59;36.48;29.00;57.88;;
69609;Laerm;56815;52.320;4.858;2023-03-21T00:40:10;39.12;29.10;63.04;;
69609;Laerm;56815;52.320;4.858;2023-03-21T00:40:21;32.92;29.05;47.90;;
69609;Laerm;56815;52.320;4.858;2023-03-21T00:40:31;32.68;29.54;43.56;;
69609;Laerm;56815;52.320;4.858;2023-03-21T00:40:42;34.55;30.16;50.71;;
69609;Laerm;56815;52.320;4.858;2023-03-21T00:40:52;33.31;30.04;46.28;;
69609;Laerm;56815;52.320;4.858;2023-03-21T00:41:03;35.78;29.89;51.19;;
69609;Laerm;56815;52.320;4.858;2023-03-21T00:41:14;34.36;29.69;49.83;;
69609;Laerm;56815;52.320;4.858;2023-03-21T00:41:24;32.38;29.36;42.12;;
69609;Laerm;56815;52.320;4.858;2023-03-21T00:41:34;35.32;29.39;56.91;;
69609;Laerm;56815;52.320;4.858;2023-03-21T00:41:45;34.71;29.74;52.22;;
69609;Laerm;56815;52.320;4.858;2023-03-21T00:41:55;33.24;29.88;44.08;;
69609;Laerm;56815;52.320;4.858;2023-03-21T00:42:05;33.38;29.76;48.72;;
69609;Laerm;56815;52.320;4.858;2023-03-21T00:42:16;34.21;29.38;50.60;;
69609;Laerm;56815;52.320;4.858;2023-03-21T00:42:27;32.73;29.06;42.67;;
69609;Laerm;56815;52.320;4.858;2023-03-21T00:42:37;33.03;29.78;44.74;;
69609;Laerm;56815;52.320;4.858;2023-03-21T00:42:47;36.28;31.11;51.08;;
69609;Laerm;56815;52.320;4.858;2023-03-21T00:42:57;35.60;30.01;50.18;;
69609;Laerm;56815;52.320;4.858;2023-03-21T00:43:08;32.31;28.96;41.71;;
69609;Laerm;56815;52.320;4.858;2023-03-21T00:43:18;38.68;29.17;62.14;;
69609;Laerm;56815;52.320;4.858;2023-03-21T00:43:32;34.42;29.28;53.90;;
69609;Laerm;56815;52.320;4.858;2023-03-21T00:43:42;31.87;29.15;43.61;;
69609;Laerm;56815;52.320;4.858;2023-03-21T00:43:52;35.75;28.96;55.21;;
69609;Laerm;56815;52.320;4.858;2023-03-21T00:44:04;32.51;28.84;47.99;;
69609;Laerm;56815;52.320;4.858;2023-03-21T00:44:17;38.19;29.11;59.22;;
69609;Laerm;56815;52.320;4.858;2023-03-21T00:44:28;39.73;29.18;64.36;;
69609;Laerm;56815;52.320;4.858;2023-03-21T00:44:38;32.18;28.46;41.16;;
69609;Laerm;56815;52.320;4.858;2023-03-21T00:44:49;33.01;28.96;44.41;;
69609;Laerm;56815;52.320;4.858;2023-03-21T00:44:59;32.40;29.21;45.78;;
69609;Laerm;56815;52.320;4.858;2023-03-21T00:45:11;32.32;29.12;40.75;;
69609;Laerm;56815;52.320;4.858;2023-03-21T00:45:21;37.64;29.49;60.47;;
69609;Laerm;56815;52.320;4.858;2023-03-21T00:45:31;34.05;29.53;51.57;;
69609;Laerm;56815;52.320;4.858;2023-03-21T00:45:42;32.75;29.06;47.29;;
69609;Laerm;56815;52.320;4.858;2023-03-21T00:45:52;34.51;28.95;53.43;;
69609;Laerm;56815;52.320;4.858;2023-03-21T00:46:03;32.03;29.27;45.60;;
69609;Laerm;56815;52.320;4.858;2023-03-21T00:46:13;33.89;28.80;51.60;;
69609;Laerm;56815;52.320;4.858;2023-03-21T00:46:23;39.49;28.50;62.84;;
69609;Laerm;56815;52.320;4.858;2023-03-21T00:46:34;32.28;29.10;41.48;;
69609;Laerm;56815;52.320;4.858;2023-03-21T00:46:44;32.89;29.28;50.91;;
69609;Laerm;56815;52.320;4.858;2023-03-21T00:46:55;44.69;29.39;65.64;;
69609;Laerm;56815;52.320;4.858;2023-03-21T00:47:05;32.81;28.68;48.41;;
69609;Laerm;56815;52.320;4.858;2023-03-21T00:47:16;34.56;29.19;54.70;;
69609;Laerm;56815;52.320;4.858;2023-03-21T00:47:26;40.86;28.97;63.74;;
69609;Laerm;56815;52.320;4.858;2023-03-21T00:47:36;34.53;29.45;50.78;;
69609;Laerm;56815;52.320;4.858;2023-03-21T00:47:47;36.24;29.03;58.41;;
69609;Laerm;56815;52.320;4.858;2023-03-21T00:47:57;34.31;29.69;52.10;;
69609;Laerm;56815;52.320;4.858;2023-03-21T00:48:07;39.65;30.66;60.32;;
69609;Laerm;56815;52.320;4.858;2023-03-21T00:48:18;56.62;37.83;65.40;;
69609;Laerm;56815;52.320;4.858;2023-03-21T00:48:28;73.18;61.05;80.51;;
69609;Laerm;56815;52.320;4.858;2023-03-21T00:48:38;80.95;54.32;91.10;;
69609;Laerm;56815;52.320;4.858;2023-03-21T00:48:48;47.76;39.37;53.32;;
69609;Laerm;56815;52.320;4.858;2023-03-21T00:48:59;38.87;33.35;51.14;;
69609;Laerm;56815;52.320;4.858;2023-03-21T00:49:09;35.59;30.44;50.35;;
69609;Laerm;56815;52.320;4.858;2023-03-21T00:49:20;34.74;29.68;50.78;;
69609;Laerm;56815;52.320;4.858;2023-03-21T00:49:30;33.09;29.39;46.59;;
69609;Laerm;56815;52.320;4.858;2023-03-21T00:49:44;33.30;29.59;48.82;;
69609;Laerm;56815;52.320;4.858;2023-03-21T00:49:54;34.91;30.90;49.01;;
69609;Laerm;56815;52.320;4.858;2023-03-21T00:50:05;32.54;29.68;44.97;;
69609;Laerm;56815;52.320;4.858;2023-03-21T00:50:16;33.11;29.30;49.32;;
69609;Laerm;56815;52.320;4.858;2023-03-21T00:50:27;32.75;29.77;43.63;;
69609;Laerm;56815;52.320;4.858;2023-03-21T00:50:37;33.18;30.61;44.83;;
69609;Laerm;56815;52.320;4.858;2023-03-21T00:50:49;34.43;30.03;52.66;;
69609;Laerm;56815;52.320;4.858;2023-03-21T00:51:01;33.68;29.69;48.03;;
69609;Laerm;56815;52.320;4.858;2023-03-21T00:51:17;34.05;29.87;49.07;;
69609;Laerm;56815;52.320;4.858;2023-03-21T00:51:34;34.07;29.29;49.39;;
69609;Laerm;56815;52.320;4.858;2023-03-21T00:51:45;32.60;29.16;46.74;;
69609;Laerm;56815;52.320;4.858;2023-03-21T00:51:55;32.68;29.08;50.01;;
69609;Laerm;56815;52.320;4.858;2023-03-21T00:52:07;32.71;29.01;46.70;;
69609;Laerm;56815;52.320;4.858;2023-03-21T00:52:18;37.63;28.83;60.96;;
69609;Laerm;56815;52.320;4.858;2023-03-21T00:52:28;32.37;29.14;46.47;;
69609;Laerm;56815;52.320;4.858;2023-03-21T00:52:38;33.16;28.90;47.77;;
69609;Laerm;56815;52.320;4.858;2023-03-21T00:52:49;32.69;29.00;46.41;;
69609;Laerm;56815;52.320;4.858;2023-03-21T00:52:59;33.23;29.40;44.79;;
69609;Laerm;56815;52.320;4.858;2023-03-21T00:53:09;35.28;28.83;51.64;;
69609;Laerm;56815;52.320;4.858;2023-03-21T00:53:20;33.86;28.92;47.97;;
69609;Laerm;56815;52.320;4.858;2023-03-21T00:53:30;32.81;29.49;47.85;;
69609;Laerm;56815;52.320;4.858;2023-03-21T00:53:41;32.40;29.40;45.69;;
69609;Laerm;56815;52.320;4.858;2023-03-21T00:53:52;33.53;29.44;46.12;;
69609;Laerm;56815;52.320;4.858;2023-03-21T00:54:02;35.18;29.22;53.17;;
69609;Laerm;56815;52.320;4.858;2023-03-21T00:54:14;33.03;28.67;50.54;;
69609;Laerm;56815;52.320;4.858;2023-03-21T00:54:25;34.35;29.05;53.49;;
69609;Laerm;56815;52.320;4.858;2023-03-21T00:54:36;31.98;29.58;38.30;;
69609;Laerm;56815;52.320;4.858;2023-03-21T00:54:46;32.30;29.49;43.53;;
69609;Laerm;56815;52.320;4.858;2023-03-21T00:54:57;34.31;29.46;50.12;;
69609;Laerm;56815;52.320;4.858;2023-03-21T00:55:09;35.07;31.23;45.33;;
69609;Laerm;56815;52.320;4.858;2023-03-21T00:55:21;37.38;30.80;60.09;;
69609;Laerm;56815;52.320;4.858;2023-03-21T00:55:32;33.14;30.49;39.99;;
69609;Laerm;56815;52.320;4.858;2023-03-21T00:55:42;33.01;30.06;44.20;;
69609;Laerm;56815;52.320;4.858;2023-03-21T00:55:52;32.93;30.13;40.20;;
69609;Laerm;56815;52.320;4.858;2023-03-21T00:56:03;37.16;30.47;50.87;;
69609;Laerm;56815;52.320;4.858;2023-03-21T00:56:13;33.32;29.63;43.37;;
69609;Laerm;56815;52.320;4.858;2023-03-21T00:56:23;33.79;29.84;46.19;;
69609;Laerm;56815;52.320;4.858;2023-03-21T00:56:34;32.77;30.01;41.15;;
69609;Laerm;56815;52.320;4.858;2023-03-21T00:56:44;32.81;29.43;48.39;;
69609;Laerm;56815;52.320;4.858;2023-03-21T00:56:55;34.59;29.34;50.18;;
69609;Laerm;56815;52.320;4.858;2023-03-21T00:57:05;32.48;29.59;41.60;;
69609;Laerm;56815;52.320;4.858;2023-03-21T00:57:16;35.78;30.36;51.12;;
69609;Laerm;56815;52.320;4.858;2023-03-21T00:57:27;33.71;29.86;48.74;;
69609;Laerm;56815;52.320;4.858;2023-03-21T00:57:38;32.98;29.53;48.01;;
69609;Laerm;56815;52.320;4.858;2023-03-21T00:57:48;31.65;29.15;43.58;;
69609;Laerm;56815;52.320;4.858;2023-03-21T00:57:58;33.05;29.02;50.21;;
69609;Laerm;56815;52.320;4.858;2023-03-21T00:58:09;32.50;28.71;46.78;;
69609;Laerm;56815;52.320;4.858;2023-03-21T00:58:20;31.65;29.17;40.63;;
69609;Laerm;56815;52.320;4.858;2023-03-21T00:58:30;31.79;29.01;43.63;;
69609;Laerm;56815;52.320;4.858;2023-03-21T00:58:41;34.24;29.03;52.05;;
69609;Laerm;56815;52.320;4.858;2023-03-21T00:58:51;36.62;29.33;57.37;;
69609;Laerm;56815;52.320;4.858;2023-03-21T00:59:01;34.37;29.02;54.66;;
69609;Laerm;56815;52.320;4.858;2023-03-21T00:59:11;32.78;29.21;51.07;;
69609;Laerm;56815;52.320;4.858;2023-03-21T00:59:22;32.35;28.94;48.56;;
69609;Laerm;56815;52.320;4.858;2023-03-21T00:59:32;32.67;29.43;46.64;;
69609;Laerm;56815;52.320;4.858;2023-03-21T00:59:42;33.32;30.41;40.54;;
69609;Laerm;56815;52.320;4.858;2023-03-21T00:59:53;34.13;29.49;48.23;;
69609;Laerm;56815;52.320;4.858;2023-03-21T01:00:03;32.51;29.76;45.65;;
69609;Laerm;56815;52.320;4.858;2023-03-21T01:00:19;32.67;29.59;45.09;;
69609;Laerm;56815;52.320;4.858;2023-03-21T01:00:29;33.87;30.18;43.36;;
69609;Laerm;56815;52.320;4.858;2023-03-21T01:00:40;35.41;31.15;48.39;;
69609;Laerm;56815;52.320;4.858;2023-03-21T01:00:50;34.33;29.90;46.58;;
69609;Laerm;56815;52.320;4.858;2023-03-21T01:01:00;32.77;29.75;43.01;;
69609;Laerm;56815;52.320;4.858;2023-03-21T01:01:11;34.29;30.44;51.48;;
69609;Laerm;56815;52.320;4.858;2023-03-21T01:01:21;38.06;30.98;57.67;;
69609;Laerm;56815;52.320;4.858;2023-03-21T01:01:32;33.71;30.44;45.69;;
69609;Laerm;56815;52.320;4.858;2023-03-21T01:01:43;33.68;30.57;48.07;;